Time;durP1;ratioP1;P1;durP2;ratioP2;P2;SDS_P1;SDS_P2;PMS_P1;PMS_P2;Temp;Humidity;BMP_temperature;BMP_pressure;BME280_temperature;BME280_humidity;BME280_pressure;Samples;Min_cycle;Max_cycle;Signal;HPM_P1;HPM_P2
2023/08/11 00:04:57;;;;;;;4.63;3.33;;;;;;;-145.68;76.65;73853.59;10458892;28;20635;-69
2023/08/11 00:09:57;;;;;;;4.03;3.20;;;;;;;-145.68;77.51;73877.59;10459738;28;20215;-69
2023/08/11 00:14:58;;;;;;;4.18;3.40;;;;;;;-145.68;78.53;73887.56;10458123;28;20258;-69
2023/08/11 00:19:58;;;;;;;11.50;3.80;;;;;;;-145.68;79.36;73903.56;10458094;28;20199;-68
2023/08/11 00:24:59;;;;;;;7.55;3.13;;;;;;;-145.68;80.58;73925.56;10459165;28;20242;-69
2023/08/11 00:30:00;;;;;;;3.80;3.08;;;;;;;-145.68;82.09;73933.56;10458291;28;20302;-69
2023/08/11 00:35:03;;;;;;;8.18;3.80;;;;;;;-145.68;83.45;73949.56;10457470;28;20216;-69
2023/08/11 00:40:04;;;;;;;3.63;3.10;;;;;;;-145.68;84.76;73953.53;10456563;28;20662;-69
2023/08/11 00:45:05;;;;;;;9.85;3.60;;;;;;;-145.68;84.75;73953.53;10483489;28;20269;-69
2023/08/11 00:50:07;;;;;;;7.28;3.50;;;;;;;-145.68;85.50;73955.53;10464846;28;20268;-69
2023/08/11 00:55:09;;;;;;;7.95;3.50;;;;;;;-145.68;85.55;73953.53;10457108;28;20240;-69
2023/08/11 01:00:13;;;;;;;8.57;3.20;;;;;;;-145.68;84.91;73955.53;10455590;28;20192;-69
2023/08/11 01:05:15;;;;;;;6.65;3.50;;;;;;;-145.68;85.55;73963.53;10457670;28;20208;-69
2023/08/11 01:10:29;;;;;;;6.75;3.58;;;;;;;-145.68;86.42;73979.53;10453927;28;20226;-69
2023/08/11 01:15:33;;;;;;;8.88;3.70;;;;;;;-145.68;89.65;74017.50;10456178;28;20232;-69
2023/08/11 01:20:35;;;;;;;3.92;3.50;;;;;;;-145.68;88.69;74003.53;10437536;28;21027;-69
2023/08/11 01:25:36;;;;;;;5.13;3.35;;;;;;;-145.68;91.07;74029.50;10455838;28;20302;-70
2023/08/11 01:30:36;;;;;;;5.38;3.92;;;;;;;-145.68;93.16;74043.50;10453432;28;20239;-70
2023/08/11 01:35:37;;;;;;;6.22;4.15;;;;;;;-145.68;96.09;74077.50;10455106;28;20212;-70
2023/08/11 01:40:38;;;;;;;4.53;4.13;;;;;;;-145.68;98.21;74079.50;10455554;28;20275;-70
2023/08/11 01:45:39;;;;;;;4.80;3.88;;;;;;;-145.68;97.80;74077.50;10455898;28;20549;-70
2023/08/11 01:50:41;;;;;;;6.03;3.95;;;;;;;-145.68;99.91;74101.47;10470165;28;20211;-70
2023/08/11 01:55:42;;;;;;;8.23;4.30;;;;;;;-145.68;100.00;74101.47;10455884;28;20308;-69
2023/08/11 02:00:43;;;;;;;4.93;4.40;;;;;;;-145.68;100.00;74121.47;10453006;28;20299;-70
2023/08/11 02:05:43;;;;;;;7.10;4.45;;;;;;;-145.68;100.00;74129.47;10455920;28;20207;-69
2023/08/11 02:10:47;;;;;;;7.10;4.50;;;;;;;-145.68;100.00;74137.47;10451860;28;20211;-70
2023/08/11 02:15:47;;;;;;;5.53;4.18;;;;;;;-145.68;100.00;74135.47;10453488;28;20314;-69
2023/08/11 02:20:48;;;;;;;5.68;4.20;;;;;;;-145.68;100.00;74127.47;10452449;28;20188;-69
2023/08/11 02:25:48;;;;;;;6.93;4.30;;;;;;;-145.68;100.00;74129.47;10453744;28;20315;-69
2023/08/11 02:30:50;;;;;;;5.10;4.10;;;;;;;-145.68;100.00;74131.47;10453672;28;20246;-68
2023/08/11 02:35:50;;;;;;;9.40;4.13;;;;;;;-145.68;100.00;74121.47;10453761;28;20323;-68
2023/08/11 02:40:50;;;;;;;5.20;3.85;;;;;;;-145.68;99.12;74111.47;10454332;28;20187;-69
2023/08/11 02:45:51;;;;;;;5.45;4.22;;;;;;;-145.68;95.87;74095.47;10451781;28;20220;-69
2023/08/11 02:50:51;;;;;;;4.93;3.92;;;;;;;-145.68;94.47;74107.47;10453805;28;20216;-69
2023/08/11 02:55:51;;;;;;;5.10;3.65;;;;;;;-145.68;93.61;74115.47;10451499;28;20270;-69
2023/08/11 03:00:52;;;;;;;4.22;3.60;;;;;;;-145.68;91.80;74105.47;10453376;28;20180;-68
2023/08/11 03:05:52;;;;;;;7.65;4.30;;;;;;;-145.68;91.58;74109.47;10451248;28;20219;-69
2023/08/11 03:10:53;;;;;;;4.28;3.67;;;;;;;-145.68;91.89;74119.47;10451725;28;20627;-69
2023/08/11 03:15:53;;;;;;;6.03;4.05;;;;;;;-145.68;93.27;74133.47;10450530;28;20652;-69
2023/08/11 03:20:54;;;;;;;4.82;3.72;;;;;;;-145.68;92.83;74135.47;10451530;28;20275;-69
2023/08/11 03:25:55;;;;;;;4.93;3.78;;;;;;;-145.68;93.58;74155.44;10450035;28;20716;-69
2023/08/11 03:30:58;;;;;;;5.57;4.03;;;;;;;-145.68;99.82;74195.44;10452031;28;20231;-68
2023/08/11 03:35:59;;;;;;;7.05;4.18;;;;;;;-145.68;100.00;74199.44;10451111;28;20212;-68
2023/08/11 03:41:00;;;;;;;5.47;4.10;;;;;;;-145.68;100.00;74193.44;10450408;28;20191;-69
2023/08/11 03:46:00;;;;;;;4.30;3.88;;;;;;;-145.68;97.96;74173.44;10451018;28;20289;-69
2023/08/11 03:51:02;;;;;;;4.22;3.83;;;;;;;-145.68;96.63;74179.44;10450069;28;20629;-69
2023/08/11 03:56:07;;;;;;;8.40;4.15;;;;;;;-145.68;97.35;74189.44;10452276;28;20634;-69
2023/08/11 04:01:08;;;;;;;4.65;3.80;;;;;;;-145.68;99.37;74211.44;10449436;28;20549;-69
2023/08/11 04:06:10;;;;;;;4.25;3.80;;;;;;;-145.68;99.90;74211.44;10450824;28;20192;-69
2023/08/11 04:11:11;;;;;;;8.55;4.30;;;;;;;-145.68;98.48;74207.44;10449068;28;20211;-70
2023/08/11 04:16:11;;;;;;;6.70;3.97;;;;;;;-145.68;98.43;74207.44;10450528;28;20200;-68
2023/08/11 04:21:12;;;;;;;4.65;3.78;;;;;;;-145.68;98.83;74223.44;10450509;28;20796;-69
2023/08/11 04:26:12;;;;;;;4.82;4.22;;;;;;;-145.68;97.85;74223.44;10450047;28;20188;-68
2023/08/11 04:31:13;;;;;;;5.72;3.90;;;;;;;-145.68;98.88;74239.41;10448687;28;20215;-69
2023/08/11 04:36:14;;;;;;;6.90;3.78;;;;;;;-145.68;100.00;74251.41;10449161;28;20200;-68
2023/08/11 04:41:16;;;;;;;4.47;3.63;;;;;;;-145.68;100.00;74259.41;10448987;28;20249;-69
2023/08/11 04:46:16;;;;;;;4.60;3.95;;;;;;;-145.68;99.77;74253.41;10457440;28;20214;-69
2023/08/11 04:51:17;;;;;;;6.60;3.72;;;;;;;-145.68;99.33;74241.41;10454158;28;20218;-69
2023/08/11 04:56:17;;;;;;;4.72;3.80;;;;;;;-145.68;97.73;74217.44;10457873;28;20679;-69
2023/08/11 05:01:17;;;;;;;4.72;3.65;;;;;;;-145.68;96.59;74217.44;10455802;28;20697;-68
2023/08/11 05:06:18;;;;;;;5.85;3.30;;;;;;;-145.68;92.66;74201.44;10455869;28;20196;-69
2023/08/11 05:11:18;;;;;;;6.90;3.40;;;;;;;-145.68;90.99;74191.44;10457257;28;20215;-68
2023/08/11 05:16:19;;;;;;;3.45;2.67;;;;;;;-145.68;88.42;74189.44;10410088;22;20256;-70
2023/08/11 05:21:20;;;;;;;9.15;3.88;;;;;;;-145.68;88.24;74199.44;10374684;28;20196;-70
2023/08/11 05:26:20;;;;;;;6.13;3.08;;;;;;;-145.68;87.74;74195.44;10374816;28;20279;-70
2023/08/11 05:31:21;;;;;;;6.78;3.58;;;;;;;-145.68;85.96;74171.44;10374519;28;20217;-70
2023/08/11 05:36:21;;;;;;;5.85;3.40;;;;;;;-145.68;86.09;74153.47;10374423;28;20221;-70
2023/08/11 05:41:22;;;;;;;3.10;2.53;;;;;;;-145.68;83.11;74091.47;10374379;28;20678;-71
2023/08/11 05:46:22;;;;;;;7.43;3.08;;;;;;;-145.68;79.78;74059.50;10373867;28;20205;-71
2023/08/11 05:51:22;;;;;;;4.57;2.92;;;;;;;-145.68;76.18;74029.50;10373828;28;20224;-71
2023/08/11 05:56:23;;;;;;;6.43;3.10;;;;;;;-145.68;73.09;73979.53;10373073;28;20209;-71
2023/08/11 06:01:23;;;;;;;4.97;2.60;;;;;;;-145.68;70.92;73907.56;10373656;28;20193;-71
2023/08/11 06:06:23;;;;;;;3.38;2.70;;;;;;;-145.68;67.66;73825.63;10372673;28;20223;-71
2023/08/11 06:11:24;;;;;;;5.60;2.67;;;;;;;-145.68;66.18;73823.63;10394621;28;20291;-72
2023/08/11 06:16:24;;;;;;;6.22;2.80;;;;;;;-145.68;64.39;73793.63;10412886;28;20258;-72
2023/08/11 06:21:25;;;;;;;4.18;2.55;;;;;;;-145.68;64.41;73795.63;10389380;28;20195;-72
2023/08/11 06:26:25;;;;;;;3.17;2.80;;;;;;;-145.68;65.14;73739.66;10391915;28;20224;-72
2023/08/11 06:31:25;;;;;;;5.72;3.20;;;;;;;-145.68;63.76;73705.69;10390530;28;20307;-71
2023/08/11 06:36:26;;;;;;;4.28;2.90;;;;;;;-145.68;60.78;73549.75;10371898;28;20213;-72
2023/08/11 06:41:26;;;;;;;6.47;2.78;;;;;;;-145.68;58.44;73459.81;10379602;28;20547;-72
2023/08/11 06:46:27;;;;;;;3.42;2.55;;;;;;;-145.68;53.63;73363.88;10389697;28;20219;-73
2023/08/11 06:51:27;;;;;;;5.97;2.53;;;;;;;-145.68;52.69;73419.84;10391228;28;20199;-73
2023/08/11 06:56:28;;;;;;;6.25;2.38;;;;;;;-145.68;49.96;73215.97;10405769;28;20262;-71
2023/08/11 07:01:28;;;;;;;5.47;1.67;;;;;;;-145.68;44.31;73020.13;10408291;28;20188;-72
2023/08/11 07:06:28;;;;;;;4.90;1.80;;;;;;;-145.68;42.54;72916.19;10406386;28;20208;-71
2023/08/11 07:11:29;;;;;;;7.45;1.98;;;;;;;-145.68;39.88;72818.25;10406014;28;20576;-71
2023/08/11 07:16:29;;;;;;;3.53;1.30;;;;;;;-145.68;40.12;72816.25;10407057;28;20255;-71
2023/08/11 07:21:29;;;;;;;3.47;1.55;;;;;;;-145.68;36.68;72744.31;10408079;28;20279;-71
2023/08/11 07:26:30;;;;;;;16.98;2.30;;;;;;;-145.68;37.74;72776.28;10407278;28;20212;-70
2023/08/11 07:31:30;;;;;;;5.55;1.70;;;;;;;-145.68;38.30;72706.34;10407627;28;20203;-71
2023/08/11 07:36:31;;;;;;;3.53;1.50;;;;;;;-145.68;37.07;72620.41;10407481;28;20209;-73
2023/08/11 07:41:31;;;;;;;4.80;1.50;;;;;;;-145.68;36.80;72630.41;10405913;28;20189;-72
2023/08/11 07:46:32;;;;;;;5.20;1.45;;;;;;;-145.68;35.31;72502.53;10404355;28;20212;-72
2023/08/11 07:51:32;;;;;;;1.95;1.40;;;;;;;-145.68;33.48;72412.59;10407414;28;20593;-71
2023/08/11 07:56:32;;;;;;;3.42;1.67;;;;;;;-145.68;35.37;72554.47;10407637;28;20209;-72
2023/08/11 08:01:33;;;;;;;2.60;1.20;;;;;;;-145.68;33.76;72340.66;10407183;28;20199;-71
2023/08/11 08:06:35;;;;;;;3.70;1.35;;;;;;;-145.68;35.55;72492.53;10407293;28;20452;-71
2023/08/11 08:11:35;;;;;;;4.10;1.38;;;;;;;-145.68;34.64;72418.59;10407056;28;20197;-70
2023/08/11 08:16:37;;;;;;;2.25;1.30;;;;;;;-145.68;33.30;72252.75;10406939;28;20616;-71
2023/08/11 08:21:38;;;;;;;3.55;1.30;;;;;;;-145.68;32.72;72294.72;10415117;28;20185;-71
2023/08/11 08:26:39;;;;;;;2.80;1.33;;;;;;;-145.68;32.95;72332.66;10414344;28;20276;-71
2023/08/11 08:31:40;;;;;;;4.70;1.27;;;;;;;-145.68;36.25;72612.44;10414576;28;20208;-70
2023/08/11 08:36:40;;;;;;;3.22;1.42;;;;;;;-145.68;35.17;72508.50;10414180;28;20462;-70
2023/08/11 08:41:44;;;;;;;3.83;1.20;;;;;;;-145.68;35.06;72508.50;10400174;28;20272;-70
2023/08/11 08:46:45;;;;;;;2.03;1.50;;;;;;;-145.68;35.04;72460.56;10380562;28;20517;-69
2023/08/11 08:51:45;;;;;;;2.95;1.25;;;;;;;-145.68;34.00;72366.63;10380652;28;20192;-70
2023/08/11 08:56:46;;;;;;;4.97;1.67;;;;;;;-145.68;35.88;72526.50;10358592;28;20217;-71
2023/08/11 09:01:46;;;;;;;6.90;1.67;;;;;;;-145.68;33.47;72342.66;10373209;28;20189;-69
2023/08/11 09:06:47;;;;;;;3.17;1.48;;;;;;;-145.68;34.02;72444.56;10410707;28;20678;-70
2023/08/11 09:11:49;;;;;;;7.75;1.88;;;;;;;-145.68;33.97;72514.50;10395176;28;20623;-70
2023/08/11 09:16:52;;;;;;;2.63;1.45;;;;;;;-145.68;35.11;72472.53;10412202;28;20232;-70
2023/08/11 09:21:52;;;;;;;8.40;1.60;;;;;;;-145.68;34.30;72424.59;10411824;28;20211;-70
2023/08/11 09:26:53;;;;;;;3.00;1.58;;;;;;;-145.68;34.45;72342.66;10411534;28;20584;-69
2023/08/11 09:31:54;;;;;;;4.78;1.50;;;;;;;-145.68;34.66;72298.69;10411286;28;20204;-70
2023/08/11 09:36:55;;;;;;;1.70;1.52;;;;;;;-145.68;34.80;72444.56;10412197;28;20683;-72
2023/08/11 09:41:55;;;;;;;5.23;1.50;;;;;;;-145.68;35.56;72354.66;10411401;28;20196;-71
2023/08/11 09:46:55;;;;;;;4.05;1.40;;;;;;;-145.68;34.77;72312.69;10393989;28;20518;-71
2023/08/11 09:52:02;;;;;;;2.47;1.65;;;;;;;-145.68;32.65;72084.91;10410003;28;20193;-70
2023/08/11 09:57:03;;;;;;;4.45;1.60;;;;;;;-145.68;35.02;72556.47;10410815;28;20259;-73
2023/08/11 10:02:04;;;;;;;5.75;1.75;;;;;;;-145.68;32.37;72270.72;10393376;28;20649;-72
2023/08/11 10:07:10;;;;;;;4.53;1.50;;;;;;;-145.68;36.59;72648.41;10392865;28;20212;-73
2023/08/11 10:12:11;;;;;;;2.85;1.45;;;;;;;-145.68;34.75;72456.56;10410614;28;20196;-73
2023/08/11 10:17:12;;;;;;;3.70;1.60;;;;;;;-145.68;34.40;72448.56;10392371;28;20633;-73
2023/08/11 10:22:13;;;;;;;3.50;1.40;;;;;;;-145.68;33.61;72298.69;10391260;28;20201;-72
2023/08/11 10:27:14;;;;;;;3.58;1.60;;;;;;;-145.68;35.17;72456.56;10409632;28;20216;-73
2023/08/11 10:32:14;;;;;;;4.90;2.08;;;;;;;-145.68;35.50;72510.50;10392345;28;20601;-73
2023/08/11 10:37:15;;;;;;;2.85;1.20;;;;;;;-145.68;32.81;72144.84;10408997;28;20213;-70
2023/08/11 10:42:15;;;;;;;3.20;1.70;;;;;;;-145.68;31.90;72090.91;10402453;28;20200;-71
2023/08/11 10:47:17;;;;;;;3.08;1.58;;;;;;;-145.68;32.58;72062.91;10406413;28;20266;-70
2023/08/11 10:52:18;;;;;;;2.08;1.50;;;;;;;-145.68;33.94;72358.66;10385029;28;20193;-73
2023/08/11 10:57:20;;;;;;;4.65;1.40;;;;;;;-145.68;31.81;72092.91;10393993;28;20220;-73
2023/08/11 11:02:21;;;;;;;3.72;1.55;;;;;;;-145.68;31.85;72074.91;10409024;28;20189;-73
2023/08/11 11:07:24;;;;;;;3.03;1.55;;;;;;;-145.68;31.41;71927.06;10390404;28;20259;-72
2023/08/11 11:12:26;;;;;;;1.77;1.27;;;;;;;-145.68;32.37;72114.88;10408181;28;20679;-74
2023/08/11 11:17:27;;;;;;;2.58;1.27;;;;;;;-145.68;33.64;72242.75;10425968;22;20326;-68
2023/08/11 11:22:28;;;;;;;5.50;1.52;;;;;;;-145.68;32.19;72164.81;10408101;28;20234;-68
2023/08/11 11:27:28;;;;;;;3.72;1.40;;;;;;;-145.68;32.74;72040.94;10395090;28;20800;-68
2023/08/11 11:32:29;;;;;;;2.63;1.40;;;;;;;-145.68;31.36;71811.16;10367966;28;20193;-68
2023/08/11 11:37:29;;;;;;;2.53;1.40;;;;;;;-145.68;30.80;71731.25;10367610;28;20205;-68
2023/08/11 11:42:30;;;;;;;4.68;1.50;;;;;;;-145.68;31.55;71973.00;10367226;28;20440;-68
2023/08/11 11:47:32;;;;;;;4.00;1.60;;;;;;;-145.68;32.05;72068.91;10366737;28;20644;-68
2023/08/11 11:52:33;;;;;;;5.28;2.50;;;;;;;-145.68;31.52;71913.06;10369938;28;20197;-67
2023/08/11 11:57:33;;;;;;;6.07;1.70;;;;;;;-145.68;33.71;72160.81;10375578;28;20785;-68
2023/08/11 12:02:34;;;;;;;3.67;1.60;;;;;;;-145.68;34.58;72372.63;10360911;28;20573;-67
2023/08/11 12:07:36;;;;;;;3.63;1.80;;;;;;;-145.68;33.13;72070.91;10374163;28;20564;-69
2023/08/11 12:12:37;;;;;;;7.20;1.98;;;;;;;-145.68;30.65;71759.22;10374802;28;20452;-67
2023/08/11 12:17:37;;;;;;;4.40;1.20;;;;;;;-145.68;32.46;72100.88;10382560;28;20236;-69
2023/08/11 12:22:38;;;;;;;2.07;1.30;;;;;;;-145.68;30.85;71877.09;10414881;28;20223;-69
2023/08/11 12:27:38;;;;;;;4.93;1.50;;;;;;;-145.68;31.77;71925.06;10414491;28;20585;-69
2023/08/11 12:32:38;;;;;;;5.23;2.23;;;;;;;-145.68;29.11;71569.44;10392830;28;20287;-69
2023/08/11 12:37:39;;;;;;;4.82;1.60;;;;;;;-145.68;29.84;71731.25;10373479;28;20510;-69
2023/08/11 12:42:40;;;;;;;2.72;1.23;;;;;;;-145.68;31.94;71979.00;10372991;28;20660;-69
2023/08/11 12:47:40;;;;;;;3.60;1.33;;;;;;;-145.68;31.91;72076.91;10373236;28;20225;-69
2023/08/11 12:52:41;;;;;;;5.07;1.70;;;;;;;-145.68;32.06;71917.06;10372436;28;20451;-68
2023/08/11 12:57:41;;;;;;;3.13;1.50;;;;;;;-145.68;31.31;71893.09;10372759;28;20209;-69
2023/08/11 13:02:42;;;;;;;2.30;1.57;;;;;;;-145.68;29.56;71653.34;10370262;28;20436;-69
2023/08/11 13:07:42;;;;;;;5.82;1.58;;;;;;;-145.68;34.17;72316.69;10371766;28;21270;-68
2023/08/11 13:12:44;;;;;;;3.35;1.42;;;;;;;-145.68;33.21;72160.81;10372588;28;20200;-69
2023/08/11 13:17:45;;;;;;;2.47;1.15;;;;;;;-145.68;30.54;71745.25;10371528;28;20239;-70
2023/08/11 13:22:45;;;;;;;2.22;1.02;;;;;;;-145.68;30.85;71793.19;10372014;28;20593;-69
2023/08/11 13:27:46;;;;;;;1.97;1.30;;;;;;;-145.68;30.31;71665.31;10372499;28;20225;-69
2023/08/11 13:32:46;;;;;;;2.80;1.50;;;;;;;-145.68;30.71;71869.13;10371206;28;20546;-68
2023/08/11 13:37:46;;;;;;;2.42;1.50;;;;;;;-145.68;32.80;72068.91;10370028;28;20444;-68
2023/08/11 13:42:47;;;;;;;3.80;1.50;;;;;;;-145.68;30.07;71689.31;10371967;28;20619;-68
2023/08/11 13:47:47;;;;;;;1.65;1.40;;;;;;;-145.68;31.59;71795.19;10371880;28;20919;-69
2023/08/11 13:52:48;;;;;;;3.35;1.50;;;;;;;-145.68;29.05;71521.47;10370548;28;20193;-69
2023/08/11 13:57:48;;;;;;;4.53;1.30;;;;;;;-145.68;27.63;71365.66;10372031;28;20646;-70
2023/08/11 14:02:50;;;;;;;2.88;1.50;;;;;;;-145.68;27.00;71201.84;10369692;28;20892;-69
2023/08/11 14:07:50;;;;;;;6.03;1.13;;;;;;;-145.68;28.31;71467.53;10369444;28;20231;-69
2023/08/11 14:12:50;;;;;;;4.27;1.50;;;;;;;-145.68;28.77;71657.34;10372220;28;20196;-68
2023/08/11 14:17:51;;;;;;;9.40;1.33;;;;;;;-145.68;28.96;71659.34;10373199;28;20515;-68
2023/08/11 14:22:51;;;;;;;2.17;1.10;;;;;;;-145.68;30.70;71783.19;10371079;28;20222;-68
2023/08/11 14:27:52;;;;;;;6.33;1.40;;;;;;;-145.68;28.69;71505.50;10371250;28;20463;-69
2023/08/11 14:32:52;;;;;;;1.87;1.30;;;;;;;-145.68;27.03;71287.75;10370650;28;20439;-70
2023/08/11 14:37:52;;;;;;;2.57;1.37;;;;;;;-145.68;26.49;71119.94;10369536;28;20197;-69
2023/08/11 14:42:53;;;;;;;3.50;1.47;;;;;;;-145.68;27.75;71445.56;10370091;28;20200;-69
2023/08/11 14:47:53;;;;;;;1.25;1.08;;;;;;;-145.68;25.31;70986.09;10368903;28;20562;-69
2023/08/11 14:52:54;;;;;;;5.90;0.90;;;;;;;-145.68;24.67;71002.09;10370427;28;20304;-67
2023/08/11 14:57:54;;;;;;;2.40;1.10;;;;;;;-145.68;26.00;71038.03;10369932;28;20196;-70
2023/08/11 15:02:55;;;;;;;3.80;1.40;;;;;;;-145.68;25.40;71042.03;10370244;28;20279;-69
2023/08/11 15:07:55;;;;;;;1.30;1.15;;;;;;;-145.68;27.00;71221.81;10370193;28;20227;-69
2023/08/11 15:12:55;;;;;;;2.93;1.10;;;;;;;-145.68;24.55;70742.41;10368751;28;20334;-69
2023/08/11 15:17:56;;;;;;;4.90;1.20;;;;;;;-145.68;27.39;71425.59;10368688;28;20192;-70
2023/08/11 15:22:56;;;;;;;5.10;1.37;;;;;;;-145.68;28.11;71525.47;10368690;28;21024;-69
2023/08/11 15:27:57;;;;;;;6.78;1.48;;;;;;;-145.68;27.01;71283.75;10367675;28;20997;-69
2023/08/11 15:32:58;;;;;;;2.05;1.05;;;;;;;-145.68;25.76;71024.06;10369041;28;20192;-70
2023/08/11 15:37:58;;;;;;;1.37;1.23;;;;;;;-145.68;26.39;71165.88;10368945;28;20710;-70
2023/08/11 15:42:58;;;;;;;1.30;1.20;;;;;;;-145.68;25.72;70968.13;10368497;28;20463;-71
2023/08/11 15:47:59;;;;;;;3.35;1.30;;;;;;;-145.68;25.10;70958.13;10368413;28;20220;-70
2023/08/11 15:52:59;;;;;;;2.77;1.50;;;;;;;-145.68;26.33;71257.78;10368719;28;20617;-71
2023/08/11 15:57:59;;;;;;;2.80;1.20;;;;;;;-145.68;27.09;71393.63;10368922;28;20450;-70
2023/08/11 16:03:00;;;;;;;3.17;1.10;;;;;;;-145.68;27.70;71437.56;10368592;28;20652;-72
2023/08/11 16:08:01;;;;;;;1.77;1.13;;;;;;;-145.68;29.10;71643.34;10368268;28;20475;-71
2023/08/11 16:13:01;;;;;;;2.40;1.20;;;;;;;-145.68;27.51;71289.75;10368808;28;20543;-70
2023/08/11 16:18:06;;;;;;;2.63;1.17;;;;;;;-145.68;28.95;71515.47;10366195;28;20444;-71
2023/08/11 16:23:06;;;;;;;3.17;1.20;;;;;;;-145.68;27.70;71341.69;10366772;28;20890;-71
2023/08/11 16:28:07;;;;;;;2.30;1.03;;;;;;;-145.68;27.73;71363.66;10366319;28;20223;-72
2023/08/11 16:33:07;;;;;;;1.20;1.10;;;;;;;-145.68;28.75;71465.53;10367199;28;20463;-72
2023/08/11 16:38:08;;;;;;;1.15;1.05;;;;;;;-145.68;29.89;71665.31;10368333;28;20436;-72
2023/08/11 16:43:09;;;;;;;3.50;1.15;;;;;;;-145.68;33.36;72122.88;10374135;28;20217;-70
2023/08/11 16:48:09;;;;;;;3.85;1.13;;;;;;;-145.68;33.58;72154.84;10371645;28;20228;-70
2023/08/11 16:53:10;;;;;;;1.92;1.40;;;;;;;-145.68;33.65;72112.88;10372608;28;20217;-69
2023/08/11 16:58:10;;;;;;;1.37;1.27;;;;;;;-145.68;34.12;72178.81;10372588;28;20204;-70
2023/08/11 17:03:11;;;;;;;4.00;1.60;;;;;;;-145.68;34.82;72114.88;10372379;28;20518;-70
2023/08/11 17:08:14;;;;;;;1.85;1.65;;;;;;;-145.68;35.55;72180.81;10372578;28;20480;-71
2023/08/11 17:13:14;;;;;;;4.88;1.77;;;;;;;-145.68;38.84;72300.69;10397424;22;20237;-71
2023/08/11 17:18:14;;;;;;;3.38;1.45;;;;;;;-145.68;42.25;72584.44;10326962;28;20229;-72
2023/08/11 17:23:15;;;;;;;6.10;2.17;;;;;;;-145.68;44.37;72624.41;10365919;28;20277;-71
2023/08/11 17:28:15;;;;;;;3.28;1.40;;;;;;;-145.68;45.36;72648.41;10371234;28;20224;-72
2023/08/11 17:33:15;;;;;;;3.75;1.50;;;;;;;-145.68;44.85;72592.44;10371263;28;20264;-72
2023/08/11 17:38:16;;;;;;;3.20;1.33;;;;;;;-145.68;47.05;72644.41;10371241;28;20181;-73
2023/08/11 17:43:16;;;;;;;3.65;1.20;;;;;;;-145.68;48.05;72754.31;10371962;28;20205;-71
2023/08/11 17:48:17;;;;;;;5.28;1.30;;;;;;;-145.68;50.56;72870.22;10373580;28;20263;-72
2023/08/11 17:53:17;;;;;;;6.57;1.70;;;;;;;-145.68;52.55;73006.13;10373489;28;20193;-72
2023/08/11 17:58:18;;;;;;;3.85;1.80;;;;;;;-145.68;54.89;73044.09;10373600;28;20280;-73
2023/08/11 18:03:18;;;;;;;3.00;1.45;;;;;;;-145.68;55.77;73070.06;10373293;28;20192;-72
2023/08/11 18:08:19;;;;;;;5.40;1.88;;;;;;;-145.68;55.03;73072.06;10394713;28;20267;-73
2023/08/11 18:13:19;;;;;;;10.38;2.97;;;;;;;-145.68;57.13;73160.00;10413482;28;20184;-71
2023/08/11 18:18:19;;;;;;;4.45;2.38;;;;;;;-145.68;56.49;73140.03;10413389;28;20271;-72
2023/08/11 18:23:20;;;;;;;3.30;1.95;;;;;;;-145.68;56.26;73144.03;10413023;28;20196;-71
2023/08/11 18:28:20;;;;;;;2.92;2.03;;;;;;;-145.68;56.90;73162.00;10397041;28;20312;-71
2023/08/11 18:33:20;;;;;;;3.47;2.10;;;;;;;-145.68;57.01;73188.00;10386570;28;20255;-71
2023/08/11 18:38:23;;;;;;;2.78;2.00;;;;;;;-145.68;57.68;73207.97;10384870;28;20182;-71
2023/08/11 18:43:24;;;;;;;7.10;2.67;;;;;;;-145.68;59.33;73263.94;10405574;28;20197;-70
2023/08/11 18:48:24;;;;;;;2.45;2.08;;;;;;;-145.68;60.58;73275.94;10412291;28;20702;-70
2023/08/11 18:53:25;;;;;;;3.17;2.35;;;;;;;-145.68;61.52;73295.94;10411930;28;20200;-70
2023/08/11 18:58:25;;;;;;;3.55;2.33;;;;;;;-145.68;62.38;73323.91;10411384;28;20280;-71
2023/08/11 19:03:25;;;;;;;5.80;2.35;;;;;;;-145.68;63.44;73327.91;10410636;28;20185;-69
2023/08/11 19:08:26;;;;;;;4.30;2.10;;;;;;;-145.68;64.93;73351.88;10388801;28;20263;-70
2023/08/11 19:13:26;;;;;;;5.15;3.38;;;;;;;-145.68;67.34;73403.84;10390822;28;20574;-70
2023/08/11 19:18:27;;;;;;;9.85;3.70;;;;;;;-145.68;68.63;73419.84;10388762;28;20282;-70
2023/08/11 19:23:27;;;;;;;5.95;2.78;;;;;;;-145.68;69.80;73435.84;10390910;28;20190;-70
2023/08/11 19:28:31;;;;;;;5.38;3.35;;;;;;;-145.68;71.32;73451.81;10389663;28;20221;-70
2023/08/11 19:33:31;;;;;;;3.63;3.00;;;;;;;-145.68;71.55;73459.81;10387934;28;20219;-71
2023/08/11 19:38:32;;;;;;;9.52;3.38;;;;;;;-145.68;73.11;73497.78;10389520;28;20685;-70
2023/08/11 19:43:32;;;;;;;7.28;2.55;;;;;;;-145.68;73.18;73499.78;10397494;28;20666;-69
2023/08/11 19:48:32;;;;;;;7.32;2.95;;;;;;;-145.68;73.63;73513.78;10411041;28;20721;-69
2023/08/11 19:53:33;;;;;;;9.23;4.57;;;;;;;-145.68;75.72;73531.78;10410656;28;20224;-70
2023/08/11 19:58:33;;;;;;;18.48;11.38;;;;;;;-145.68;76.44;73541.78;10397420;28;20655;-70
2023/08/11 20:03:34;;;;;;;8.30;3.30;;;;;;;-145.68;77.89;73555.75;10370260;28;20202;-71
2023/08/11 20:08:34;;;;;;;3.92;2.53;;;;;;;-145.68;79.46;73579.75;10390012;28;20217;-70
2023/08/11 20:13:34;;;;;;;4.82;3.40;;;;;;;-145.68;81.02;73597.75;10392598;28;20221;-71
2023/08/11 20:18:35;;;;;;;11.25;3.35;;;;;;;-145.68;80.91;73583.75;10395863;28;20235;-70
2023/08/11 20:23:35;;;;;;;5.30;3.30;;;;;;;-145.68;81.53;73597.75;10411674;28;20224;-70
2023/08/11 20:28:35;;;;;;;4.82;2.90;;;;;;;-145.68;82.40;73607.72;10417644;28;20598;-70
2023/08/11 20:33:36;;;;;;;6.28;3.22;;;;;;;-145.68;83.11;73617.72;10413954;28;20626;-70
2023/08/11 20:38:36;;;;;;;5.90;3.20;;;;;;;-145.68;84.02;73625.72;10390317;28;20212;-71
2023/08/11 20:43:36;;;;;;;4.93;3.42;;;;;;;-145.68;83.87;73631.72;10376620;28;20221;-71
2023/08/11 20:48:37;;;;;;;5.93;3.30;;;;;;;-145.68;84.53;73633.72;10376542;28;20213;-71
2023/08/11 20:53:37;;;;;;;8.82;3.45;;;;;;;-145.68;84.58;73631.72;10376223;28;20301;-70
2023/08/11 20:58:39;;;;;;;5.00;3.13;;;;;;;-145.68;85.34;73651.72;10376451;28;20189;-70
2023/08/11 21:03:39;;;;;;;9.63;3.60;;;;;;;-145.68;84.99;73639.72;10375701;28;20225;-70
2023/08/11 21:08:47;;;;;;;5.30;3.67;;;;;;;-145.68;85.91;73647.72;10375599;28;20221;-70
2023/08/11 21:13:47;;;;;;;6.07;3.47;;;;;;;-145.68;85.23;73641.72;10375719;28;20302;-71
2023/08/11 21:18:48;;;;;;;5.22;3.25;;;;;;;-145.68;85.89;73647.72;10375334;28;20278;-70
2023/08/11 21:23:49;;;;;;;4.78;3.63;;;;;;;-145.68;84.19;73631.72;10374000;28;20222;-70
2023/08/11 21:28:49;;;;;;;3.95;3.20;;;;;;;-145.68;84.46;73641.72;10375019;28;20217;-70
2023/08/11 21:34:05;;;;;;;6.40;3.55;;;;;;;-145.68;84.12;73635.72;10374897;28;20232;-70
2023/08/11 21:39:06;;;;;;;7.35;3.58;;;;;;;-145.68;83.30;73623.72;10374757;28;20292;-70
2023/08/11 21:44:06;;;;;;;7.28;3.30;;;;;;;-145.68;83.20;73625.72;10374315;28;20239;-71
2023/08/11 21:49:06;;;;;;;8.25;3.45;;;;;;;-145.68;82.34;73611.72;10374157;28;20221;-71
2023/08/11 21:54:07;;;;;;;4.07;3.53;;;;;;;-145.68;81.24;73611.72;10374188;28;20216;-71
2023/08/11 21:59:07;;;;;;;8.88;3.50;;;;;;;-145.68;80.39;73611.72;10372325;28;20242;-71
2023/08/11 22:04:09;;;;;;;7.55;3.85;;;;;;;-145.68;78.90;73599.72;10373991;28;20212;-71
2023/08/11 22:09:09;;;;;;;6.10;3.20;;;;;;;-145.68;75.66;73569.75;10373238;28;20232;-70
2023/08/11 22:14:10;;;;;;;8.43;3.30;;;;;;;-145.68;75.63;73571.75;10373200;28;20233;-71
2023/08/11 22:19:10;;;;;;;4.55;2.90;;;;;;;-145.68;74.59;73569.75;10373187;28;20284;-71
2023/08/11 22:24:11;;;;;;;7.85;3.05;;;;;;;-145.68;74.16;73569.75;10372662;28;20224;-71
2023/08/11 22:29:11;;;;;;;5.05;2.60;;;;;;;-145.68;73.87;73553.75;10371849;28;20225;-71
2023/08/11 22:34:11;;;;;;;4.90;3.13;;;;;;;-145.68;73.67;73553.75;10372402;28;20755;-71
2023/08/11 22:39:12;;;;;;;6.25;2.78;;;;;;;-145.68;74.02;73567.75;10372501;28;20678;-71
2023/08/11 22:44:12;;;;;;;8.93;3.35;;;;;;;-145.68;73.36;73555.75;10372059;28;20700;-70
2023/08/11 22:49:13;;;;;;;6.35;3.35;;;;;;;-145.68;73.97;73569.75;10371938;28;20718;-71